Pagina principale
METAR-TAF:

METAR-TAF

Aeroporti :

Bad Vöslau, Austria

latitudine: 47-57-52N, longitudine: 016-15-34E, altezza: 233 m

Osservazione

Il bollettino è stato emesso 4 ore e 4 minuti fa, alle 17:00 UTC
Vento 10 kt da ovest
Temperature 24°C
Umidità 47%
Pressione

METAR: LOAV 161700Z 28010KT 35KM SCT050CU BKN100AC 24/12

Ora: 23:04 (21:04 UTC)

Previsione

Il bollettino è stato emesso 7 ore e 43 minuti fa, alle 13:21 UTC
Previsione valida dal 16 alle 13 UTC al 16 alle 21 UTC
Vento 10 kt da nord-ovest
Visibilità 10 km o più
Nubi sparse ad un'altezza di 5000 ft
Evoluzione graduale
dal 16 alle 17 UTC al 16 alle 19 UTC
Vento 2 kt da direzioni variabili

TAF: LOAV 161321Z 1613/1621 31010KT 9999 SCT050 BECMG 1617/1619 VRB02KT

Osservazioni e previsioni meteorologiche di più di 4000 aeroporti (messaggi METAR e TAF).

Le stazioni disponibili sono rappresentate dai dischi gialli e rossi sulla carta.

Puntare il mouse per vedere il nome della stazione.

Clicca sopra per visualizzare le osservazioni e previsioni meteorologiche.

Per cambiare la mappa : fare clic sui pulsanti verdi con una croce nera per ingrandire, il pulsante verde con un trattino per diminuire, o sulla freccia verde per le mappe adiacenti.


METAR-TAF: